sensor_id;sensor_type;location;lat;lon;timestamp;pressure;altitude;pressure_sealevel;temperature;humidity
6030;BME280;3043;42.682;23.376;2022-12-07T00:01:07;94885.81;;;7.10;100.00
6030;BME280;3043;42.682;23.376;2022-12-07T00:03:33;94880.53;;;7.19;100.00
6030;BME280;3043;42.682;23.376;2022-12-07T00:06:00;94880.44;;;7.25;100.00
6030;BME280;3043;42.682;23.376;2022-12-07T00:08:26;94885.69;;;7.19;100.00
6030;BME280;3043;42.682;23.376;2022-12-07T00:10:52;94873.56;;;7.27;100.00
6030;BME280;3043;42.682;23.376;2022-12-07T00:13:17;94882.03;;;7.35;100.00
6030;BME280;3043;42.682;23.376;2022-12-07T00:15:43;94875.13;;;7.37;100.00
6030;BME280;3043;42.682;23.376;2022-12-07T00:18:08;94875.97;;;7.39;100.00
6030;BME280;3043;42.682;23.376;2022-12-07T00:20:33;94867.16;;;7.52;100.00
6030;BME280;3043;42.682;23.376;2022-12-07T00:22:59;94875.78;;;7.51;100.00
6030;BME280;3043;42.682;23.376;2022-12-07T00:25:25;94872.47;;;7.42;100.00
6030;BME280;3043;42.682;23.376;2022-12-07T00:27:52;94873.44;;;7.36;100.00
6030;BME280;3043;42.682;23.376;2022-12-07T00:30:21;94870.66;;;7.50;100.00
6030;BME280;3043;42.682;23.376;2022-12-07T00:32:46;94875.00;;;7.45;100.00
6030;BME280;3043;42.682;23.376;2022-12-07T00:35:11;94873.38;;;7.39;100.00
6030;BME280;3043;42.682;23.376;2022-12-07T00:37:37;94883.72;;;7.36;100.00
6030;BME280;3043;42.682;23.376;2022-12-07T00:40:03;94887.28;;;7.28;100.00
6030;BME280;3043;42.682;23.376;2022-12-07T00:42:28;94882.31;;;7.14;100.00
6030;BME280;3043;42.682;23.376;2022-12-07T00:44:53;94875.56;;;7.07;100.00
6030;BME280;3043;42.682;23.376;2022-12-07T00:47:19;94875.16;;;7.34;100.00
6030;BME280;3043;42.682;23.376;2022-12-07T00:49:44;94876.94;;;7.32;100.00
6030;BME280;3043;42.682;23.376;2022-12-07T00:52:10;94870.28;;;7.16;100.00
6030;BME280;3043;42.682;23.376;2022-12-07T00:54:35;94867.78;;;7.11;100.00
6030;BME280;3043;42.682;23.376;2022-12-07T00:57:00;94865.88;;;7.25;100.00
6030;BME280;3043;42.682;23.376;2022-12-07T00:59:26;94867.69;;;7.17;100.00
6030;BME280;3043;42.682;23.376;2022-12-07T01:01:51;94863.53;;;7.07;100.00
6030;BME280;3043;42.682;23.376;2022-12-07T01:04:17;94863.34;;;7.21;100.00
6030;BME280;3043;42.682;23.376;2022-12-07T01:06:42;94861.56;;;7.26;100.00
6030;BME280;3043;42.682;23.376;2022-12-07T01:09:07;94859.75;;;7.31;100.00
6030;BME280;3043;42.682;23.376;2022-12-07T01:11:33;94862.59;;;7.13;100.00
6030;BME280;3043;42.682;23.376;2022-12-07T01:13:59;94857.50;;;7.10;100.00
6030;BME280;3043;42.682;23.376;2022-12-07T01:16:28;94872.97;;;7.08;100.00
6030;BME280;3043;42.682;23.376;2022-12-07T01:18:55;94860.97;;;7.07;100.00
6030;BME280;3043;42.682;23.376;2022-12-07T01:21:29;94860.88;;;7.13;100.00
6030;BME280;3043;42.682;23.376;2022-12-07T01:23:57;94853.09;;;7.18;100.00
6030;BME280;3043;42.682;23.376;2022-12-07T01:26:24;94852.78;;;7.39;100.00
6030;BME280;3043;42.682;23.376;2022-12-07T01:28:50;94848.69;;;7.28;100.00
6030;BME280;3043;42.682;23.376;2022-12-07T01:31:19;94843.38;;;7.38;100.00
6030;BME280;3043;42.682;23.376;2022-12-07T01:33:47;94846.03;;;7.32;100.00
6030;BME280;3043;42.682;23.376;2022-12-07T01:38:41;94849.84;;;7.63;100.00
6030;BME280;3043;42.682;23.376;2022-12-07T01:41:07;94851.38;;;7.76;100.00
6030;BME280;3043;42.682;23.376;2022-12-07T01:43:34;94848.13;;;7.64;100.00
6030;BME280;3043;42.682;23.376;2022-12-07T01:46:00;94852.59;;;7.51;100.00
6030;BME280;3043;42.682;23.376;2022-12-07T01:48:34;94857.03;;;7.42;100.00
6030;BME280;3043;42.682;23.376;2022-12-07T01:51:06;94854.66;;;7.28;100.00
6030;BME280;3043;42.682;23.376;2022-12-07T01:53:36;94849.56;;;7.25;100.00
6030;BME280;3043;42.682;23.376;2022-12-07T01:56:03;94841.00;;;7.26;100.00
6030;BME280;3043;42.682;23.376;2022-12-07T01:58:29;94831.31;;;7.40;100.00
6030;BME280;3043;42.682;23.376;2022-12-07T02:00:55;94839.69;;;7.54;100.00
6030;BME280;3043;42.682;23.376;2022-12-07T02:03:25;94834.41;;;7.62;100.00
6030;BME280;3043;42.682;23.376;2022-12-07T02:05:53;94827.50;;;7.65;100.00
6030;BME280;3043;42.682;23.376;2022-12-07T02:08:19;94823.25;;;7.61;100.00
6030;BME280;3043;42.682;23.376;2022-12-07T02:10:45;94830.16;;;7.59;100.00
6030;BME280;3043;42.682;23.376;2022-12-07T02:13:14;94826.91;;;7.48;100.00
6030;BME280;3043;42.682;23.376;2022-12-07T02:21:07;94835.63;;;7.40;100.00
6030;BME280;3043;42.682;23.376;2022-12-07T02:31:30;94825.25;;;7.44;100.00
6030;BME280;3043;42.682;23.376;2022-12-07T02:34:32;94812.22;;;7.55;100.00
6030;BME280;3043;42.682;23.376;2022-12-07T02:37:06;94815.00;;;7.41;100.00
6030;BME280;3043;42.682;23.376;2022-12-07T02:39:41;94806.41;;;7.42;100.00
6030;BME280;3043;42.682;23.376;2022-12-07T02:42:17;94811.31;;;7.57;100.00
6030;BME280;3043;42.682;23.376;2022-12-07T02:44:45;94820.00;;;7.50;100.00
6030;BME280;3043;42.682;23.376;2022-12-07T02:47:14;94815.16;;;7.32;100.00
6030;BME280;3043;42.682;23.376;2022-12-07T02:49:41;94823.63;;;7.37;100.00
6030;BME280;3043;42.682;23.376;2022-12-07T02:52:07;94817.66;;;7.37;100.00
6030;BME280;3043;42.682;23.376;2022-12-07T02:54:33;94813.44;;;7.31;100.00
6030;BME280;3043;42.682;23.376;2022-12-07T02:59:58;94810.47;;;7.55;100.00
6030;BME280;3043;42.682;23.376;2022-12-07T03:11:05;94794.22;;;7.53;100.00
6030;BME280;3043;42.682;23.376;2022-12-07T03:13:41;94795.91;;;7.54;100.00
6030;BME280;3043;42.682;23.376;2022-12-07T03:16:14;94789.13;;;7.50;100.00
6030;BME280;3043;42.682;23.376;2022-12-07T03:19:11;94793.63;;;7.36;100.00
6030;BME280;3043;42.682;23.376;2022-12-07T03:21:46;94792.94;;;7.25;100.00
6030;BME280;3043;42.682;23.376;2022-12-07T03:24:15;94791.25;;;7.24;100.00
6030;BME280;3043;42.682;23.376;2022-12-07T03:26:48;94787.88;;;7.19;100.00
6030;BME280;3043;42.682;23.376;2022-12-07T03:29:22;94789.88;;;6.99;100.00
6030;BME280;3043;42.682;23.376;2022-12-07T03:32:16;94794.81;;;7.14;100.00
6030;BME280;3043;42.682;23.376;2022-12-07T03:34:56;94801.84;;;7.03;100.00
6030;BME280;3043;42.682;23.376;2022-12-07T03:37:32;94805.44;;;6.90;100.00
6030;BME280;3043;42.682;23.376;2022-12-07T03:42:28;94797.19;;;6.67;100.00
6030;BME280;3043;42.682;23.376;2022-12-07T03:44:54;94802.31;;;6.70;100.00
6030;BME280;3043;42.682;23.376;2022-12-07T03:47:26;94792.72;;;6.81;100.00
6030;BME280;3043;42.682;23.376;2022-12-07T03:49:59;94792.78;;;6.75;100.00
6030;BME280;3043;42.682;23.376;2022-12-07T03:57:32;94790.69;;;6.39;100.00
6030;BME280;3043;42.682;23.376;2022-12-07T03:59:58;94784.72;;;6.37;100.00
6030;BME280;3043;42.682;23.376;2022-12-07T04:02:27;94777.75;;;6.46;100.00
6030;BME280;3043;42.682;23.376;2022-12-07T04:04:54;94780.94;;;6.65;100.00
6030;BME280;3043;42.682;23.376;2022-12-07T04:07:20;94781.75;;;6.70;100.00
6030;BME280;3043;42.682;23.376;2022-12-07T04:09:45;94783.78;;;6.44;100.00
6030;BME280;3043;42.682;23.376;2022-12-07T04:12:10;94781.91;;;6.55;100.00
6030;BME280;3043;42.682;23.376;2022-12-07T04:14:36;94775.31;;;6.36;100.00
6030;BME280;3043;42.682;23.376;2022-12-07T04:17:01;94773.81;;;6.20;100.00
6030;BME280;3043;42.682;23.376;2022-12-07T04:19:29;94772.22;;;6.07;100.00
6030;BME280;3043;42.682;23.376;2022-12-07T04:21:56;94768.63;;;6.23;100.00
6030;BME280;3043;42.682;23.376;2022-12-07T04:24:23;94768.56;;;6.29;100.00
6030;BME280;3043;42.682;23.376;2022-12-07T04:26:49;94768.66;;;6.20;100.00
6030;BME280;3043;42.682;23.376;2022-12-07T04:29:14;94777.34;;;6.08;100.00
6030;BME280;3043;42.682;23.376;2022-12-07T04:31:40;94780.72;;;6.15;100.00
6030;BME280;3043;42.682;23.376;2022-12-07T04:34:07;94777.13;;;6.28;100.00
6030;BME280;3043;42.682;23.376;2022-12-07T04:36:33;94780.41;;;6.39;100.00
6030;BME280;3043;42.682;23.376;2022-12-07T04:38:59;94780.53;;;6.30;100.00
6030;BME280;3043;42.682;23.376;2022-12-07T04:41:25;94777.97;;;6.30;100.00
6030;BME280;3043;42.682;23.376;2022-12-07T04:43:57;94779.56;;;6.37;100.00
6030;BME280;3043;42.682;23.376;2022-12-07T04:46:24;94784.84;;;6.25;100.00
6030;BME280;3043;42.682;23.376;2022-12-07T04:48:51;94796.09;;;6.18;100.00
6030;BME280;3043;42.682;23.376;2022-12-07T04:51:23;94794.28;;;6.26;100.00
6030;BME280;3043;42.682;23.376;2022-12-07T04:53:48;94797.13;;;5.99;100.00
6030;BME280;3043;42.682;23.376;2022-12-07T04:56:15;94786.78;;;6.05;100.00
6030;BME280;3043;42.682;23.376;2022-12-07T04:58:41;94791.31;;;5.85;100.00
6030;BME280;3043;42.682;23.376;2022-12-07T05:01:08;94789.53;;;5.90;100.00
6030;BME280;3043;42.682;23.376;2022-12-07T05:03:33;94786.06;;;5.94;100.00
6030;BME280;3043;42.682;23.376;2022-12-07T05:05:58;94792.94;;;5.92;100.00
6030;BME280;3043;42.682;23.376;2022-12-07T05:08:24;94786.19;;;5.79;100.00
6030;BME280;3043;42.682;23.376;2022-12-07T05:10:50;94784.53;;;5.72;100.00
6030;BME280;3043;42.682;23.376;2022-12-07T05:13:15;94791.22;;;5.92;100.00
6030;BME280;3043;42.682;23.376;2022-12-07T05:15:41;94794.53;;;6.02;100.00
6030;BME280;3043;42.682;23.376;2022-12-07T05:18:09;94792.94;;;5.92;100.00
6030;BME280;3043;42.682;23.376;2022-12-07T05:20:37;94787.00;;;5.85;100.00
6030;BME280;3043;42.682;23.376;2022-12-07T05:23:02;94792.09;;;5.88;100.00
6030;BME280;3043;42.682;23.376;2022-12-07T05:25:28;94790.38;;;5.90;100.00
6030;BME280;3043;42.682;23.376;2022-12-07T05:27:55;94779.19;;;5.96;100.00
6030;BME280;3043;42.682;23.376;2022-12-07T05:30:20;94781.72;;;6.00;100.00
6030;BME280;3043;42.682;23.376;2022-12-07T05:32:45;94791.00;;;6.12;100.00
6030;BME280;3043;42.682;23.376;2022-12-07T05:35:11;94795.13;;;6.25;100.00
6030;BME280;3043;42.682;23.376;2022-12-07T05:37:36;94792.63;;;6.19;100.00
6030;BME280;3043;42.682;23.376;2022-12-07T05:40:03;94797.66;;;6.28;100.00
6030;BME280;3043;42.682;23.376;2022-12-07T05:42:28;94792.56;;;6.25;100.00
6030;BME280;3043;42.682;23.376;2022-12-07T05:44:54;94788.25;;;6.28;100.00
6030;BME280;3043;42.682;23.376;2022-12-07T05:47:19;94783.97;;;6.29;100.00
6030;BME280;3043;42.682;23.376;2022-12-07T05:49:45;94780.41;;;6.39;100.00
6030;BME280;3043;42.682;23.376;2022-12-07T05:52:10;94783.91;;;6.35;100.00
6030;BME280;3043;42.682;23.376;2022-12-07T05:54:36;94781.41;;;6.27;100.00
6030;BME280;3043;42.682;23.376;2022-12-07T05:57:01;94768.63;;;6.23;100.00
6030;BME280;3043;42.682;23.376;2022-12-07T05:59:27;94773.72;;;6.26;100.00
6030;BME280;3043;42.682;23.376;2022-12-07T06:02:00;94784.94;;;6.17;100.00
6030;BME280;3043;42.682;23.376;2022-12-07T06:04:28;94782.06;;;6.43;100.00
6030;BME280;3043;42.682;23.376;2022-12-07T06:06:54;94786.47;;;6.35;100.00
6030;BME280;3043;42.682;23.376;2022-12-07T06:09:21;94786.59;;;6.24;100.00
6030;BME280;3043;42.682;23.376;2022-12-07T06:11:47;94773.59;;;6.38;100.00
6030;BME280;3043;42.682;23.376;2022-12-07T06:14:31;94778.84;;;6.29;100.00
6030;BME280;3043;42.682;23.376;2022-12-07T06:16:57;94782.13;;;6.37;100.00
6030;BME280;3043;42.682;23.376;2022-12-07T06:19:23;94781.19;;;6.45;100.00
6030;BME280;3043;42.682;23.376;2022-12-07T06:21:48;94779.66;;;6.31;100.00
6030;BME280;3043;42.682;23.376;2022-12-07T06:24:15;94779.63;;;6.32;100.00
6030;BME280;3043;42.682;23.376;2022-12-07T06:26:41;94785.44;;;6.48;100.00
6030;BME280;3043;42.682;23.376;2022-12-07T06:29:07;94782.00;;;6.49;100.00
6030;BME280;3043;42.682;23.376;2022-12-07T06:31:32;94785.41;;;6.51;100.00
6030;BME280;3043;42.682;23.376;2022-12-07T06:34:07;94787.78;;;6.64;100.00
6030;BME280;3043;42.682;23.376;2022-12-07T06:36:33;94783.22;;;6.86;100.00
6030;BME280;3043;42.682;23.376;2022-12-07T06:38:59;94787.41;;;6.91;100.00
6030;BME280;3043;42.682;23.376;2022-12-07T06:41:24;94790.75;;;6.99;100.00
6030;BME280;3043;42.682;23.376;2022-12-07T06:43:50;94805.28;;;7.02;100.00
6030;BME280;3043;42.682;23.376;2022-12-07T06:46:17;94796.53;;;7.15;100.00
6030;BME280;3043;42.682;23.376;2022-12-07T06:48:43;94812.69;;;7.24;100.00
6030;BME280;3043;42.682;23.376;2022-12-07T06:51:09;94805.72;;;7.31;100.00
6030;BME280;3043;42.682;23.376;2022-12-07T06:53:35;94802.88;;;7.46;100.00
6030;BME280;3043;42.682;23.376;2022-12-07T06:56:04;94804.50;;;7.53;100.00
6030;BME280;3043;42.682;23.376;2022-12-07T06:58:30;94804.50;;;7.53;100.00
6030;BME280;3043;42.682;23.376;2022-12-07T07:00:55;94802.63;;;7.61;100.00
6030;BME280;3043;42.682;23.376;2022-12-07T07:03:21;94807.69;;;7.67;100.00
6030;BME280;3043;42.682;23.376;2022-12-07T07:05:46;94810.84;;;7.84;100.00
6030;BME280;3043;42.682;23.376;2022-12-07T07:08:12;94807.31;;;7.91;100.00
6030;BME280;3043;42.682;23.376;2022-12-07T07:10:38;94807.13;;;8.00;100.00
6030;BME280;3043;42.682;23.376;2022-12-07T07:13:04;94803.63;;;8.04;100.00
6030;BME280;3043;42.682;23.376;2022-12-07T07:15:31;94805.47;;;7.96;100.00
6030;BME280;3043;42.682;23.376;2022-12-07T07:17:56;94808.72;;;8.07;100.00
6030;BME280;3043;42.682;23.376;2022-12-07T07:20:22;94806.66;;;8.27;100.00
6030;BME280;3043;42.682;23.376;2022-12-07T07:22:48;94823.00;;;8.28;100.00
6030;BME280;3043;42.682;23.376;2022-12-07T07:25:14;94813.56;;;8.25;100.00
6030;BME280;3043;42.682;23.376;2022-12-07T07:27:39;94818.19;;;8.52;100.00
6030;BME280;3043;42.682;23.376;2022-12-07T07:30:05;94824.66;;;8.74;100.00
6030;BME280;3043;42.682;23.376;2022-12-07T07:32:31;94820.50;;;8.66;100.00
6030;BME280;3043;42.682;23.376;2022-12-07T07:34:56;94826.88;;;8.48;100.00
6030;BME280;3043;42.682;23.376;2022-12-07T07:37:22;94832.06;;;8.47;100.00
6030;BME280;3043;42.682;23.376;2022-12-07T07:39:48;94826.56;;;8.18;100.00
6030;BME280;3043;42.682;23.376;2022-12-07T07:42:14;94831.13;;;8.02;100.00
6030;BME280;3043;42.682;23.376;2022-12-07T07:44:39;94831.75;;;8.16;100.00
6030;BME280;3043;42.682;23.376;2022-12-07T07:47:05;94825.31;;;8.41;100.00
6030;BME280;3043;42.682;23.376;2022-12-07T07:49:30;94820.66;;;8.99;100.00
6030;BME280;3043;42.682;23.376;2022-12-07T07:51:56;94828.69;;;9.26;100.00
6030;BME280;3043;42.682;23.376;2022-12-07T07:54:21;94824.69;;;9.51;100.00
6030;BME280;3043;42.682;23.376;2022-12-07T07:56:46;94829.44;;;10.02;100.00
6030;BME280;3043;42.682;23.376;2022-12-07T07:59:12;94829.22;;;10.45;100.00
6030;BME280;3043;42.682;23.376;2022-12-07T08:01:37;94835.75;;;11.19;100.00
6030;BME280;3043;42.682;23.376;2022-12-07T08:04:03;94832.91;;;11.83;100.00
6030;BME280;3043;42.682;23.376;2022-12-07T08:06:28;94845.66;;;12.41;100.00
6030;BME280;3043;42.682;23.376;2022-12-07T08:08:54;94838.78;;;13.36;100.00
6030;BME280;3043;42.682;23.376;2022-12-07T08:11:19;94844.75;;;13.61;100.00
6030;BME280;3043;42.682;23.376;2022-12-07T08:13:45;94852.59;;;13.38;100.00
6030;BME280;3043;42.682;23.376;2022-12-07T08:16:14;94851.44;;;13.22;100.00
6030;BME280;3043;42.682;23.376;2022-12-07T08:18:40;94846.44;;;13.62;100.00
6030;BME280;3043;42.682;23.376;2022-12-07T08:21:08;94844.06;;;13.79;100.00
6030;BME280;3043;42.682;23.376;2022-12-07T08:23:34;94849.06;;;13.39;100.00
6030;BME280;3043;42.682;23.376;2022-12-07T08:26:06;94853.16;;;13.23;100.00
6030;BME280;3043;42.682;23.376;2022-12-07T08:28:32;94852.91;;;13.52;100.00
6030;BME280;3043;42.682;23.376;2022-12-07T08:31:22;94854.41;;;14.22;100.00
6030;BME280;3043;42.682;23.376;2022-12-07T08:33:48;94850.44;;;15.15;100.00
6030;BME280;3043;42.682;23.376;2022-12-07T08:36:14;94849.81;;;15.67;100.00
6030;BME280;3043;42.682;23.376;2022-12-07T08:38:40;94849.81;;;15.67;100.00
6030;BME280;3043;42.682;23.376;2022-12-07T08:41:07;94859.72;;;14.82;100.00
6030;BME280;3043;42.682;23.376;2022-12-07T08:43:33;94854.19;;;14.28;100.00
6030;BME280;3043;42.682;23.376;2022-12-07T08:51:35;94838.03;;;12.62;100.00
6030;BME280;3043;42.682;23.376;2022-12-07T08:54:04;94827.69;;;12.09;100.00
6030;BME280;3043;42.682;23.376;2022-12-07T08:56:31;94834.31;;;12.19;100.00
6030;BME280;3043;42.682;23.376;2022-12-07T08:58:57;94821.59;;;12.12;100.00
6030;BME280;3043;42.682;23.376;2022-12-07T09:01:23;94819.34;;;12.01;100.00
6030;BME280;3043;42.682;23.376;2022-12-07T09:03:49;94823.56;;;12.04;100.00
6030;BME280;3043;42.682;23.376;2022-12-07T09:06:14;94821.72;;;11.81;100.00
6030;BME280;3043;42.682;23.376;2022-12-07T09:08:42;94813.22;;;12.28;100.00
6030;BME280;3043;42.682;23.376;2022-12-07T09:11:10;94822.00;;;12.00;100.00
6030;BME280;3043;42.682;23.376;2022-12-07T09:13:36;94816.53;;;11.81;100.00
6030;BME280;3043;42.682;23.376;2022-12-07T09:16:01;94815.13;;;11.71;100.00
6030;BME280;3043;42.682;23.376;2022-12-07T09:18:27;94810.03;;;11.68;100.00
6030;BME280;3043;42.682;23.376;2022-12-07T09:20:52;94799.63;;;11.70;100.00
6030;BME280;3043;42.682;23.376;2022-12-07T09:23:18;94801.88;;;11.80;100.00
6030;BME280;3043;42.682;23.376;2022-12-07T09:25:43;94798.44;;;11.80;100.00
6030;BME280;3043;42.682;23.376;2022-12-07T09:28:09;94804.75;;;11.71;100.00
6030;BME280;3043;42.682;23.376;2022-12-07T09:30:34;94805.50;;;11.47;100.00
6030;BME280;3043;42.682;23.376;2022-12-07T09:33:01;94800.13;;;11.53;100.00
6030;BME280;3043;42.682;23.376;2022-12-07T09:35:27;94797.75;;;11.46;100.00
6030;BME280;3043;42.682;23.376;2022-12-07T09:37:52;94782.59;;;11.61;100.00
6030;BME280;3043;42.682;23.376;2022-12-07T09:40:19;94775.66;;;11.63;100.00
6030;BME280;3043;42.682;23.376;2022-12-07T09:42:49;94781.00;;;11.57;100.00
6030;BME280;3043;42.682;23.376;2022-12-07T09:45:22;94777.28;;;11.38;100.00
6030;BME280;3043;42.682;23.376;2022-12-07T09:47:49;94775.88;;;11.28;100.00
6030;BME280;3043;42.682;23.376;2022-12-07T09:50:25;94778.75;;;11.47;100.00
6030;BME280;3043;42.682;23.376;2022-12-07T09:52:52;94769.59;;;11.63;100.00
6030;BME280;3043;42.682;23.376;2022-12-07T09:55:29;94766.88;;;11.67;100.00
6030;BME280;3043;42.682;23.376;2022-12-07T09:57:57;94769.50;;;11.66;100.00
6030;BME280;3043;42.682;23.376;2022-12-07T10:00:23;94767.06;;;11.34;100.00
6030;BME280;3043;42.682;23.376;2022-12-07T10:07:51;94765.03;;;11.16;100.00
6030;BME280;3043;42.682;23.376;2022-12-07T10:10:25;94752.94;;;11.16;100.00
6030;BME280;3043;42.682;23.376;2022-12-07T10:15:21;94745.44;;;11.61;100.00
6030;BME280;3043;42.682;23.376;2022-12-07T10:17:49;94740.69;;;11.75;100.00
6030;BME280;3043;42.682;23.376;2022-12-07T10:23:03;94732.72;;;11.53;100.00
6030;BME280;3043;42.682;23.376;2022-12-07T10:25:32;94737.91;;;11.53;100.00
6030;BME280;3043;42.682;23.376;2022-12-07T10:28:09;94731.34;;;11.43;100.00
6030;BME280;3043;42.682;23.376;2022-12-07T10:31:14;94731.59;;;11.63;100.00
6030;BME280;3043;42.682;23.376;2022-12-07T10:33:58;94728.38;;;11.81;100.00
6030;BME280;3043;42.682;23.376;2022-12-07T10:36:27;94718.13;;;12.03;100.00
6030;BME280;3043;42.682;23.376;2022-12-07T10:39:03;94715.63;;;12.24;100.00
6030;BME280;3043;42.682;23.376;2022-12-07T10:41:29;94716.75;;;12.17;100.00
6030;BME280;3043;42.682;23.376;2022-12-07T10:43:56;94708.44;;;11.83;100.00
6030;BME280;3043;42.682;23.376;2022-12-07T10:46:57;94702.66;;;11.75;100.00
6030;BME280;3043;42.682;23.376;2022-12-07T10:49:41;94713.75;;;11.79;100.00
6030;BME280;3043;42.682;23.376;2022-12-07T10:58:37;94701.66;;;11.79;100.00
6030;BME280;3043;42.682;23.376;2022-12-07T11:01:33;94692.25;;;12.01;100.00
6030;BME280;3043;42.682;23.376;2022-12-07T11:07:00;94678.41;;;12.25;100.00
6030;BME280;3043;42.682;23.376;2022-12-07T11:13:02;94673.44;;;12.19;100.00
6030;BME280;3043;42.682;23.376;2022-12-07T11:23:48;94674.53;;;12.12;100.00
6030;BME280;3043;42.682;23.376;2022-12-07T11:26:23;94663.03;;;11.96;100.00
6030;BME280;3043;42.682;23.376;2022-12-07T11:31:30;94655.25;;;11.96;100.00
6030;BME280;3043;42.682;23.376;2022-12-07T11:34:30;94642.63;;;12.10;100.00
6030;BME280;3043;42.682;23.376;2022-12-07T11:37:03;94631.94;;;12.19;100.00
6030;BME280;3043;42.682;23.376;2022-12-07T11:39:37;94639.69;;;12.66;100.00
6030;BME280;3043;42.682;23.376;2022-12-07T11:42:14;94642.47;;;13.06;100.00
6030;BME280;3043;42.682;23.376;2022-12-07T11:44:49;94635.78;;;13.20;100.00
6030;BME280;3043;42.682;23.376;2022-12-07T11:47:27;94635.78;;;13.00;100.00
6030;BME280;3043;42.682;23.376;2022-12-07T11:52:51;94627.72;;;12.62;100.00
6030;BME280;3043;42.682;23.376;2022-12-07T12:03:57;94624.63;;;13.18;100.00
6030;BME280;3043;42.682;23.376;2022-12-07T12:06:25;94620.91;;;13.45;100.00
6030;BME280;3043;42.682;23.376;2022-12-07T12:20:48;94594.28;;;12.76;100.00
6030;BME280;3043;42.682;23.376;2022-12-07T12:25:51;94601.88;;;12.58;100.00
6030;BME280;3043;42.682;23.376;2022-12-07T12:28:29;94599.75;;;12.46;100.00
6030;BME280;3043;42.682;23.376;2022-12-07T12:31:28;94598.31;;;12.39;100.00
6030;BME280;3043;42.682;23.376;2022-12-07T12:34:01;94597.91;;;12.27;100.00
6030;BME280;3043;42.682;23.376;2022-12-07T12:36:43;94592.91;;;12.22;100.00
6030;BME280;3043;42.682;23.376;2022-12-07T12:39:10;94589.56;;;12.19;100.00
6030;BME280;3043;42.682;23.376;2022-12-07T12:47:04;94574.16;;;11.91;100.00
6030;BME280;3043;42.682;23.376;2022-12-07T12:49:38;94570.66;;;11.69;100.00
6030;BME280;3043;42.682;23.376;2022-12-07T12:55:00;94564.63;;;11.92;100.00
6030;BME280;3043;42.682;23.376;2022-12-07T12:57:31;94572.03;;;12.02;100.00
6030;BME280;3043;42.682;23.376;2022-12-07T12:59:58;94572.47;;;12.13;100.00
6030;BME280;3043;42.682;23.376;2022-12-07T13:02:31;94567.47;;;12.30;100.00
6030;BME280;3043;42.682;23.376;2022-12-07T13:13:04;94576.78;;;13.44;100.00
6030;BME280;3043;42.682;23.376;2022-12-07T13:15:45;94577.81;;;13.60;100.00
6030;BME280;3043;42.682;23.376;2022-12-07T13:28:33;94566.88;;;14.49;100.00
6030;BME280;3043;42.682;23.376;2022-12-07T13:31:55;94566.41;;;14.21;100.00
6030;BME280;3043;42.682;23.376;2022-12-07T13:33:54;94568.78;;;14.07;100.00
6030;BME280;3043;42.682;23.376;2022-12-07T13:36:29;94566.97;;;14.09;100.00
6030;BME280;3043;42.682;23.376;2022-12-07T13:41:41;94562.59;;;14.09;100.00
6030;BME280;3043;42.682;23.376;2022-12-07T13:44:17;94563.72;;;14.04;100.00
6030;BME280;3043;42.682;23.376;2022-12-07T13:47:06;94553.88;;;13.72;100.00
6030;BME280;3043;42.682;23.376;2022-12-07T13:49:37;94549.59;;;13.71;100.00
6030;BME280;3043;42.682;23.376;2022-12-07T13:52:17;94554.03;;;13.49;100.00
6030;BME280;3043;42.682;23.376;2022-12-07T13:57:30;94555.81;;;13.07;100.00
6030;BME280;3043;42.682;23.376;2022-12-07T13:59:57;94554.47;;;12.97;100.00
6030;BME280;3043;42.682;23.376;2022-12-07T14:02:34;94547.53;;;12.76;100.00
6030;BME280;3043;42.682;23.376;2022-12-07T14:07:59;94548.56;;;12.72;100.00
6030;BME280;3043;42.682;23.376;2022-12-07T14:10:32;94560.91;;;12.67;100.00
6030;BME280;3043;42.682;23.376;2022-12-07T14:12:59;94553.63;;;12.75;100.00
6030;BME280;3043;42.682;23.376;2022-12-07T14:15:30;94560.22;;;12.62;100.00
6030;BME280;3043;42.682;23.376;2022-12-07T14:17:58;94558.09;;;12.49;100.00
6030;BME280;3043;42.682;23.376;2022-12-07T14:22:55;94568.22;;;12.34;100.00
6030;BME280;3043;42.682;23.376;2022-12-07T14:25:25;94568.84;;;12.40;100.00
6030;BME280;3043;42.682;23.376;2022-12-07T14:27:59;94572.00;;;12.48;100.00
6030;BME280;3043;42.682;23.376;2022-12-07T14:30:30;94576.28;;;12.49;100.00
6030;BME280;3043;42.682;23.376;2022-12-07T14:32:59;94565.34;;;12.41;100.00
6030;BME280;3043;42.682;23.376;2022-12-07T14:35:26;94564.25;;;12.25;100.00
6030;BME280;3043;42.682;23.376;2022-12-07T14:37:51;94560.16;;;12.18;100.00
6030;BME280;3043;42.682;23.376;2022-12-07T14:40:20;94556.91;;;11.90;100.00
6030;BME280;3043;42.682;23.376;2022-12-07T14:42:48;94563.66;;;11.94;100.00
6030;BME280;3043;42.682;23.376;2022-12-07T14:45:21;94564.75;;;11.89;100.00
6030;BME280;3043;42.682;23.376;2022-12-07T14:47:47;94564.22;;;11.79;100.00
6030;BME280;3043;42.682;23.376;2022-12-07T14:50:18;94562.75;;;11.72;100.00
6030;BME280;3043;42.682;23.376;2022-12-07T14:52:51;94561.28;;;11.65;100.00
6030;BME280;3043;42.682;23.376;2022-12-07T14:55:26;94568.28;;;11.63;100.00
6030;BME280;3043;42.682;23.376;2022-12-07T14:57:52;94558.97;;;11.56;100.00
6030;BME280;3043;42.682;23.376;2022-12-07T15:00:18;94558.19;;;11.54;100.00
6030;BME280;3043;42.682;23.376;2022-12-07T15:02:45;94564.38;;;11.50;100.00
6030;BME280;3043;42.682;23.376;2022-12-07T15:05:11;94564.75;;;11.40;100.00
6030;BME280;3043;42.682;23.376;2022-12-07T15:07:36;94575.31;;;11.34;100.00
6030;BME280;3043;42.682;23.376;2022-12-07T15:10:02;94579.03;;;11.27;100.00
6030;BME280;3043;42.682;23.376;2022-12-07T15:12:28;94577.41;;;11.23;100.00
6030;BME280;3043;42.682;23.376;2022-12-07T15:14:53;94574.88;;;11.21;100.00
6030;BME280;3043;42.682;23.376;2022-12-07T15:17:19;94581.81;;;11.21;100.00
6030;BME280;3043;42.682;23.376;2022-12-07T15:19:44;94587.06;;;11.19;100.00
6030;BME280;3043;42.682;23.376;2022-12-07T15:22:10;94591.59;;;11.13;100.00
6030;BME280;3043;42.682;23.376;2022-12-07T15:24:36;94583.25;;;11.03;100.00
6030;BME280;3043;42.682;23.376;2022-12-07T15:27:02;94579.09;;;10.99;100.00
6030;BME280;3043;42.682;23.376;2022-12-07T15:29:28;94577.50;;;10.95;100.00
6030;BME280;3043;42.682;23.376;2022-12-07T15:31:54;94575.91;;;10.91;100.00